createdAt,value
2023-01-26T00:00:40.676Z,931.92
2023-01-26T00:01:40.719Z,931.94
2023-01-26T00:02:40.764Z,931.95
2023-01-26T00:03:40.743Z,932.03
2023-01-26T00:04:40.742Z,932.09
2023-01-26T00:05:40.780Z,932.12
2023-01-26T00:06:40.776Z,932.16
2023-01-26T00:07:40.786Z,932.17
2023-01-26T00:08:40.812Z,932.18
2023-01-26T00:09:40.821Z,932.22
2023-01-26T00:10:40.838Z,932.19
2023-01-26T00:11:40.854Z,932.15
2023-01-26T00:12:40.875Z,932.19
2023-01-26T00:13:40.896Z,932.18
2023-01-26T00:14:40.933Z,932.16
2023-01-26T00:15:40.926Z,932.17
2023-01-26T00:16:40.946Z,932.13
2023-01-26T00:17:40.957Z,932.12
2023-01-26T00:18:41.001Z,932.16
2023-01-26T00:19:40.991Z,932.17
2023-01-26T00:20:41.007Z,932.17
2023-01-26T00:21:41.027Z,932.24
2023-01-26T00:22:41.062Z,932.27
2023-01-26T00:23:41.062Z,932.24
2023-01-26T00:24:41.090Z,932.24
2023-01-26T00:25:41.096Z,932.29
2023-01-26T00:26:41.131Z,932.29
2023-01-26T00:27:41.128Z,932.30
2023-01-26T00:28:41.146Z,932.32
2023-01-26T00:29:41.168Z,932.38
2023-01-26T00:30:41.256Z,932.39
2023-01-26T00:31:41.211Z,932.43
2023-01-26T00:32:41.211Z,932.44
2023-01-26T00:33:41.229Z,932.45
2023-01-26T00:34:41.251Z,932.46
2023-01-26T00:35:41.262Z,932.50
2023-01-26T00:36:41.312Z,932.52
2023-01-26T00:37:41.308Z,932.54
2023-01-26T00:38:41.322Z,932.56
2023-01-26T00:39:41.335Z,932.54
2023-01-26T00:40:41.352Z,932.53
2023-01-26T00:41:41.364Z,932.53
2023-01-26T00:42:41.382Z,932.56
2023-01-26T00:43:41.404Z,932.53
2023-01-26T00:44:41.422Z,932.54
2023-01-26T00:45:41.434Z,932.54
2023-01-26T00:46:41.530Z,932.56
2023-01-26T00:47:41.469Z,932.55
2023-01-26T00:48:41.490Z,932.59
2023-01-26T00:49:41.531Z,932.60
2023-01-26T00:50:41.529Z,932.65
2023-01-26T00:51:41.533Z,932.63
2023-01-26T00:52:41.564Z,932.67
2023-01-26T00:53:41.568Z,932.73
2023-01-26T00:54:41.589Z,932.71
2023-01-26T00:55:41.609Z,932.75
2023-01-26T00:56:41.620Z,932.76
2023-01-26T00:57:41.641Z,932.74
2023-01-26T00:58:41.653Z,932.71
2023-01-26T00:59:41.679Z,932.70
2023-01-26T01:00:41.818Z,932.66
2023-01-26T01:01:41.745Z,932.69
2023-01-26T01:02:41.746Z,932.70
2023-01-26T01:03:41.738Z,932.74
2023-01-26T01:04:41.764Z,932.71
2023-01-26T01:05:41.775Z,932.79
2023-01-26T01:06:41.795Z,932.82
2023-01-26T01:07:41.805Z,932.78
2023-01-26T01:08:41.830Z,932.85
2023-01-26T01:09:41.853Z,932.81
2023-01-26T01:10:41.854Z,932.83
2023-01-26T01:11:41.879Z,932.82
2023-01-26T01:12:41.890Z,932.78
2023-01-26T01:13:41.914Z,932.83
2023-01-26T01:14:41.939Z,932.81
2023-01-26T01:15:41.960Z,932.80
2023-01-26T01:16:41.965Z,932.81
2023-01-26T01:17:41.985Z,932.84
2023-01-26T01:18:42.013Z,932.82
2023-01-26T01:19:42.015Z,932.86
2023-01-26T01:20:42.044Z,932.88
2023-01-26T01:21:42.059Z,932.99
2023-01-26T01:22:42.066Z,932.95
2023-01-26T01:23:42.074Z,932.92
2023-01-26T01:24:42.094Z,932.90
2023-01-26T01:25:42.108Z,932.89
2023-01-26T01:26:42.129Z,932.90
2023-01-26T01:27:42.167Z,932.87
2023-01-26T01:28:42.179Z,932.85
2023-01-26T01:29:42.203Z,932.84
2023-01-26T01:30:42.258Z,932.83
2023-01-26T01:31:42.237Z,932.87
2023-01-26T01:32:42.244Z,932.95
2023-01-26T01:33:42.248Z,932.97
2023-01-26T01:34:42.285Z,932.95
2023-01-26T01:35:42.288Z,932.94
2023-01-26T01:36:42.294Z,932.97
2023-01-26T01:37:42.320Z,932.99
2023-01-26T01:38:42.343Z,932.97
2023-01-26T01:39:42.352Z,933.00
2023-01-26T01:40:42.368Z,933.06
2023-01-26T01:41:42.386Z,933.03
2023-01-26T01:42:42.402Z,933.04
2023-01-26T01:43:42.412Z,933.03
2023-01-26T01:44:42.430Z,933.08
2023-01-26T01:45:42.452Z,933.04
2023-01-26T01:46:42.520Z,933.07
2023-01-26T01:47:42.489Z,933.08
2023-01-26T01:48:42.495Z,933.02
2023-01-26T01:49:42.522Z,933.05
2023-01-26T01:50:42.631Z,933.06
2023-01-26T01:51:42.546Z,933.02
2023-01-26T01:52:42.571Z,933.03
2023-01-26T01:53:42.588Z,933.06
2023-01-26T01:54:42.596Z,933.04
2023-01-26T01:55:42.615Z,933.07
2023-01-26T01:56:42.639Z,933.05
2023-01-26T01:57:42.650Z,933.01
2023-01-26T01:58:42.684Z,933.04
2023-01-26T01:59:42.689Z,933.02
2023-01-26T02:00:42.721Z,932.98
2023-01-26T02:01:42.740Z,933.01
2023-01-26T02:02:42.731Z,933.04
2023-01-26T02:03:42.759Z,933.01
2023-01-26T02:04:42.766Z,933.01
2023-01-26T02:05:42.782Z,933.05
2023-01-26T02:06:42.818Z,932.98
2023-01-26T02:07:42.824Z,932.98
2023-01-26T02:08:42.837Z,932.95
2023-01-26T02:09:42.851Z,932.99
2023-01-26T02:10:42.865Z,932.92
2023-01-26T02:11:42.885Z,932.88
2023-01-26T02:12:42.900Z,932.88
2023-01-26T02:13:42.930Z,932.92
2023-01-26T02:14:42.965Z,932.91
2023-01-26T02:15:42.956Z,932.89
2023-01-26T02:16:42.978Z,933.00
2023-01-26T02:17:42.983Z,932.98
2023-01-26T02:18:43.001Z,932.92
2023-01-26T02:19:43.029Z,932.90
2023-01-26T02:20:43.040Z,932.95
2023-01-26T02:21:43.060Z,932.89
2023-01-26T02:22:43.096Z,932.88
2023-01-26T02:23:43.085Z,932.91
2023-01-26T02:24:43.114Z,932.89
2023-01-26T02:25:43.131Z,932.96
2023-01-26T02:26:43.133Z,932.94
2023-01-26T02:27:43.159Z,932.94
2023-01-26T02:28:43.171Z,932.93
2023-01-26T02:29:43.191Z,932.89
2023-01-26T02:30:43.257Z,932.85
2023-01-26T02:31:43.287Z,932.81
2023-01-26T02:32:43.255Z,932.81
2023-01-26T02:33:43.258Z,932.79
2023-01-26T02:34:43.297Z,932.79
2023-01-26T02:35:43.307Z,932.73
2023-01-26T02:36:43.300Z,932.75
2023-01-26T02:37:43.326Z,932.76
2023-01-26T02:38:43.358Z,932.70
2023-01-26T02:39:43.364Z,932.68
2023-01-26T02:40:43.368Z,932.62
2023-01-26T02:41:43.396Z,932.58
2023-01-26T02:42:43.400Z,932.57
2023-01-26T02:43:43.418Z,932.59
2023-01-26T02:44:43.442Z,932.60
2023-01-26T02:45:43.463Z,932.60
2023-01-26T02:46:43.509Z,932.60
2023-01-26T02:47:43.492Z,932.62
2023-01-26T02:48:43.510Z,932.62
2023-01-26T02:49:43.534Z,932.62
2023-01-26T02:50:43.536Z,932.59
2023-01-26T02:51:43.565Z,932.55
2023-01-26T02:52:43.582Z,932.60
2023-01-26T02:53:43.594Z,932.56
2023-01-26T02:54:43.633Z,932.54
2023-01-26T02:55:43.620Z,932.55
2023-01-26T02:56:43.679Z,932.57
2023-01-26T02:57:43.655Z,932.53
2023-01-26T02:58:43.667Z,932.47
2023-01-26T02:59:43.729Z,932.49
2023-01-26T03:00:43.835Z,932.47
2023-01-26T03:01:43.811Z,932.48
2023-01-26T03:02:43.734Z,932.47
2023-01-26T03:03:43.762Z,932.46
2023-01-26T03:04:43.777Z,932.43
2023-01-26T03:05:43.786Z,932.43
2023-01-26T03:06:43.802Z,932.42
2023-01-26T03:07:43.821Z,932.43
2023-01-26T03:08:43.845Z,932.43
2023-01-26T03:09:43.851Z,932.39
2023-01-26T03:10:43.896Z,932.37
2023-01-26T03:11:43.896Z,932.34
2023-01-26T03:12:43.900Z,932.32
2023-01-26T03:13:43.919Z,932.33
2023-01-26T03:14:43.933Z,932.39
2023-01-26T03:15:44.020Z,932.44
2023-01-26T03:16:43.974Z,932.41
2023-01-26T03:17:43.994Z,932.47
2023-01-26T03:18:43.999Z,932.49
2023-01-26T03:19:44.021Z,932.54
2023-01-26T03:20:44.040Z,932.51
2023-01-26T03:21:44.069Z,932.56
2023-01-26T03:22:44.073Z,932.53
2023-01-26T03:23:44.087Z,932.50
2023-01-26T03:24:44.109Z,932.47
2023-01-26T03:25:44.124Z,932.45
2023-01-26T03:26:44.169Z,932.39
2023-01-26T03:27:44.163Z,932.41
2023-01-26T03:28:44.167Z,932.38
2023-01-26T03:29:44.184Z,932.41
2023-01-26T03:30:44.235Z,932.39
2023-01-26T03:31:44.226Z,932.33
2023-01-26T03:32:44.239Z,932.35
2023-01-26T03:33:44.250Z,932.36
2023-01-26T03:34:44.276Z,932.31
2023-01-26T03:35:44.283Z,932.27
2023-01-26T03:36:44.308Z,932.26
2023-01-26T03:37:44.329Z,932.20
2023-01-26T03:38:44.332Z,932.19
2023-01-26T03:39:44.359Z,932.23
2023-01-26T03:40:44.377Z,932.18
2023-01-26T03:41:44.383Z,932.19
2023-01-26T03:42:44.416Z,932.18
2023-01-26T03:43:44.425Z,932.23
2023-01-26T03:44:44.432Z,932.19
2023-01-26T03:45:44.448Z,932.19
2023-01-26T03:46:44.578Z,932.20
2023-01-26T03:47:44.481Z,932.16
2023-01-26T03:48:44.506Z,932.16
2023-01-26T03:49:44.515Z,932.13
2023-01-26T03:50:44.575Z,932.10
2023-01-26T03:51:44.549Z,932.10
2023-01-26T03:52:44.592Z,932.10
2023-01-26T03:53:44.587Z,932.09
2023-01-26T03:54:44.604Z,932.12
2023-01-26T03:55:44.613Z,932.09
2023-01-26T03:56:44.720Z,932.08
2023-01-26T03:57:44.647Z,932.12
2023-01-26T03:58:44.690Z,932.11
2023-01-26T03:59:44.687Z,932.10
2023-01-26T04:00:44.709Z,932.05
2023-01-26T04:01:44.800Z,932.09
2023-01-26T04:02:44.728Z,932.05
2023-01-26T04:03:44.753Z,932.06
2023-01-26T04:04:44.766Z,932.05
2023-01-26T04:05:44.783Z,932.03
2023-01-26T04:06:44.801Z,932.04
2023-01-26T04:07:44.822Z,932.01
2023-01-26T04:08:44.833Z,931.99
2023-01-26T04:09:44.854Z,931.99
2023-01-26T04:10:44.868Z,931.96
2023-01-26T04:11:44.879Z,931.97
2023-01-26T04:12:44.898Z,931.93
2023-01-26T04:13:44.931Z,931.92
2023-01-26T04:14:49.931Z,931.90
2023-01-26T04:15:44.955Z,931.90
2023-01-26T04:16:44.967Z,931.89
2023-01-26T04:17:44.980Z,931.85
2023-01-26T04:18:44.991Z,931.86
2023-01-26T04:19:45.009Z,931.80
2023-01-26T04:20:45.032Z,931.82
2023-01-26T04:21:45.050Z,931.79
2023-01-26T04:22:45.073Z,931.78
2023-01-26T04:23:45.093Z,931.81
2023-01-26T04:24:45.092Z,931.79
2023-01-26T04:25:45.119Z,931.80
2023-01-26T04:26:45.133Z,931.83
2023-01-26T04:27:45.149Z,931.80
2023-01-26T04:33:26.018Z,931.81
2023-01-26T04:34:26.014Z,931.80
2023-01-26T04:35:26.029Z,931.81
2023-01-26T04:36:26.040Z,931.81
2023-01-26T04:37:26.057Z,931.78
2023-01-26T04:38:26.070Z,931.80
2023-01-26T04:39:26.087Z,931.76
2023-01-26T04:40:26.112Z,931.76
2023-01-26T04:41:26.128Z,931.78
2023-01-26T04:42:26.148Z,931.75
2023-01-26T04:43:26.151Z,931.81
2023-01-26T04:44:26.172Z,931.78
2023-01-26T04:45:26.187Z,931.81
2023-01-26T04:46:26.203Z,931.78
2023-01-26T04:47:29.137Z,931.82
2023-01-26T04:48:26.241Z,931.74
2023-01-26T04:49:26.270Z,931.76
2023-01-26T04:50:26.305Z,931.75
2023-01-26T04:51:26.283Z,931.73
2023-01-26T04:52:26.301Z,931.73
2023-01-26T04:53:26.322Z,931.71
2023-01-26T04:54:26.338Z,931.70
2023-01-26T04:55:26.346Z,931.71
2023-01-26T04:56:26.376Z,931.68
2023-01-26T04:57:26.383Z,931.71
2023-01-26T04:58:26.406Z,931.69
2023-01-26T04:59:26.422Z,931.70
2023-01-26T05:00:26.428Z,931.68
2023-01-26T05:01:26.592Z,931.70
2023-01-26T05:02:26.463Z,931.69
2023-01-26T05:03:26.483Z,931.70
2023-01-26T05:04:26.569Z,931.69
2023-01-26T05:05:26.528Z,931.70
2023-01-26T05:06:26.532Z,931.71
2023-01-26T05:07:26.549Z,931.70
2023-01-26T05:08:26.559Z,931.74
2023-01-26T05:09:26.581Z,931.72
2023-01-26T05:10:26.590Z,931.74
2023-01-26T05:11:26.617Z,931.74
2023-01-26T05:12:26.637Z,931.70
2023-01-26T05:13:26.649Z,931.67
2023-01-26T05:14:26.656Z,931.72
2023-01-26T05:15:26.671Z,931.67
2023-01-26T05:16:26.713Z,931.68
2023-01-26T05:17:26.715Z,931.69
2023-01-26T05:18:26.740Z,931.69
2023-01-26T05:19:26.737Z,931.67
2023-01-26T05:20:26.765Z,931.66
2023-01-26T05:21:26.824Z,931.62
2023-01-26T05:22:26.787Z,931.69
2023-01-26T05:23:26.821Z,931.62
2023-01-26T05:24:26.870Z,931.61
2023-01-26T05:25:26.884Z,931.61
2023-01-26T05:26:26.859Z,931.62
2023-01-26T05:27:26.882Z,931.63
2023-01-26T05:28:26.891Z,931.57
2023-01-26T05:29:26.901Z,931.58
2023-01-26T05:30:26.937Z,931.64
2023-01-26T05:31:26.999Z,931.67
2023-01-26T05:32:26.956Z,931.61
2023-01-26T05:33:26.973Z,931.66
2023-01-26T05:34:26.988Z,931.62
2023-01-26T05:35:27.005Z,931.60
2023-01-26T05:36:27.013Z,931.58
2023-01-26T05:37:27.052Z,931.53
2023-01-26T05:38:27.057Z,931.50
2023-01-26T05:39:27.070Z,931.50
2023-01-26T05:40:27.079Z,931.44
2023-01-26T05:41:27.109Z,931.47
2023-01-26T05:42:27.119Z,931.48
2023-01-26T05:43:27.135Z,931.48
2023-01-26T05:44:27.156Z,931.52
2023-01-26T05:45:27.161Z,931.55
2023-01-26T05:46:27.200Z,931.56
2023-01-26T05:47:27.202Z,931.57
2023-01-26T05:48:27.213Z,931.63
2023-01-26T05:49:27.233Z,931.60
2023-01-26T05:50:27.257Z,931.60
2023-01-26T05:51:27.262Z,931.58
2023-01-26T05:52:27.278Z,931.55
2023-01-26T05:53:27.317Z,931.59
2023-01-26T05:54:27.319Z,931.55
2023-01-26T05:55:27.329Z,931.56
2023-01-26T05:56:27.339Z,931.56
2023-01-26T05:57:27.356Z,931.51
2023-01-26T05:58:27.371Z,931.54
2023-01-26T05:59:27.391Z,931.49
2023-01-26T06:00:27.403Z,931.52
2023-01-26T06:01:27.419Z,931.49
2023-01-26T06:02:27.535Z,931.50
2023-01-26T06:03:27.459Z,931.55
2023-01-26T06:04:27.493Z,931.54
2023-01-26T06:05:27.496Z,931.52
2023-01-26T06:06:27.507Z,931.56
2023-01-26T06:07:27.525Z,931.56
2023-01-26T06:08:27.735Z,931.60
2023-01-26T06:09:27.781Z,931.62
2023-01-26T06:10:27.566Z,931.60
2023-01-26T06:11:27.591Z,931.59
2023-01-26T06:12:27.613Z,931.55
2023-01-26T06:13:27.623Z,931.60
2023-01-26T06:14:27.633Z,931.59
2023-01-26T06:15:27.648Z,931.59
2023-01-26T06:16:27.722Z,931.62
2023-01-26T06:17:27.688Z,931.58
2023-01-26T06:18:27.694Z,931.58
2023-01-26T06:19:27.711Z,931.62
2023-01-26T06:20:27.735Z,931.60
2023-01-26T06:21:27.749Z,931.60
2023-01-26T06:22:27.774Z,931.61
2023-01-26T06:23:27.786Z,931.58
2023-01-26T06:24:27.792Z,931.65
2023-01-26T06:25:27.826Z,931.62
2023-01-26T06:26:27.830Z,931.63
2023-01-26T06:27:27.852Z,931.62
2023-01-26T06:28:27.864Z,931.65
2023-01-26T06:29:27.880Z,931.65
2023-01-26T06:30:27.981Z,931.67
2023-01-26T06:31:28.123Z,931.66
2023-01-26T06:32:27.922Z,931.68
2023-01-26T06:33:27.945Z,931.67
2023-01-26T06:34:27.956Z,931.66
2023-01-26T06:35:27.986Z,931.64
2023-01-26T06:36:27.987Z,931.62
2023-01-26T06:37:28.002Z,931.69
2023-01-26T06:38:28.026Z,931.67
2023-01-26T06:39:28.037Z,931.64
2023-01-26T06:40:28.061Z,931.68
2023-01-26T06:41:28.090Z,931.69
2023-01-26T06:42:28.088Z,931.66
2023-01-26T06:43:28.098Z,931.66
2023-01-26T06:44:28.119Z,931.68
2023-01-26T06:45:28.142Z,931.65
2023-01-26T06:46:28.239Z,931.67
2023-01-26T06:47:28.161Z,931.67
2023-01-26T06:48:28.188Z,931.65
2023-01-26T06:49:28.202Z,931.63
2023-01-26T06:50:28.218Z,931.66
2023-01-26T06:51:28.242Z,931.66
2023-01-26T06:52:28.244Z,931.65
2023-01-26T06:53:28.259Z,931.62
2023-01-26T06:54:28.288Z,931.69
2023-01-26T06:55:28.298Z,931.69
2023-01-26T06:56:28.309Z,931.68
2023-01-26T06:57:28.348Z,931.73
2023-01-26T06:58:28.346Z,931.68
2023-01-26T06:59:28.354Z,931.71
2023-01-26T07:00:28.380Z,931.68
2023-01-26T07:01:28.433Z,931.70
2023-01-26T07:02:28.509Z,931.68
2023-01-26T07:03:28.428Z,931.66
2023-01-26T07:04:28.458Z,931.68
2023-01-26T07:05:28.479Z,931.69
2023-01-26T07:06:28.474Z,931.71
2023-01-26T07:07:28.482Z,931.72
2023-01-26T07:08:28.500Z,931.71
2023-01-26T07:09:28.527Z,931.72
2023-01-26T07:10:28.531Z,931.72
2023-01-26T07:11:28.550Z,931.74
2023-01-26T07:12:28.563Z,931.71
2023-01-26T07:13:28.605Z,931.71
2023-01-26T07:14:28.597Z,931.71
2023-01-26T07:15:28.618Z,931.70
2023-01-26T07:16:28.670Z,931.67
2023-01-26T07:17:28.657Z,931.69
2023-01-26T07:18:28.665Z,931.66
2023-01-26T07:19:28.683Z,931.70
2023-01-26T07:20:28.708Z,931.71
2023-01-26T07:21:28.719Z,931.74
2023-01-26T07:22:28.723Z,931.72
2023-01-26T07:23:28.738Z,931.71
2023-01-26T07:24:28.761Z,931.70
2023-01-26T07:25:28.789Z,931.72
2023-01-26T07:26:28.787Z,931.72
2023-01-26T07:27:28.816Z,931.71
2023-01-26T07:28:28.819Z,931.73
2023-01-26T07:29:28.855Z,931.76
2023-01-26T07:30:28.862Z,931.71
2023-01-26T07:31:28.918Z,931.73
2023-01-26T07:32:28.892Z,931.73
2023-01-26T07:33:28.910Z,931.75
2023-01-26T07:34:28.915Z,931.74
2023-01-26T07:35:28.945Z,931.75
2023-01-26T07:36:28.962Z,931.76
2023-01-26T07:37:28.973Z,931.72
2023-01-26T07:38:29.013Z,931.72
2023-01-26T07:39:28.994Z,931.70
2023-01-26T07:40:29.137Z,931.69
2023-01-26T07:41:29.034Z,931.65
2023-01-26T07:42:29.043Z,931.68
2023-01-26T07:43:29.057Z,931.64
2023-01-26T07:44:29.082Z,931.63
2023-01-26T07:45:29.115Z,931.65
2023-01-26T07:46:29.265Z,931.63
2023-01-26T07:47:29.124Z,931.61
2023-01-26T07:48:29.143Z,931.63
2023-01-26T07:49:29.155Z,931.64
2023-01-26T07:50:29.172Z,931.68
2023-01-26T07:51:29.193Z,931.70
2023-01-26T07:52:29.202Z,931.68
2023-01-26T07:53:29.278Z,931.68
2023-01-26T07:54:29.236Z,931.64
2023-01-26T07:55:29.251Z,931.63
2023-01-26T07:56:29.275Z,931.63
2023-01-26T07:57:29.288Z,931.59
2023-01-26T07:58:29.305Z,931.61
2023-01-26T07:59:29.325Z,931.65
2023-01-26T08:00:29.377Z,931.66
2023-01-26T08:01:29.481Z,931.65
2023-01-26T08:02:29.515Z,931.63
2023-01-26T08:03:29.377Z,931.62
2023-01-26T08:04:29.399Z,931.60
2023-01-26T08:05:29.419Z,931.60
2023-01-26T08:06:29.435Z,931.56
2023-01-26T08:07:29.454Z,931.61
2023-01-26T08:08:29.463Z,931.57
2023-01-26T08:09:29.471Z,931.58
2023-01-26T08:10:29.487Z,931.62
2023-01-26T08:11:29.508Z,931.65
2023-01-26T08:12:29.519Z,931.66
2023-01-26T08:13:35.219Z,931.67
2023-01-26T08:14:45.148Z,931.70
2023-01-26T08:15:29.569Z,931.70
2023-01-26T08:16:29.594Z,931.72
2023-01-26T08:17:29.630Z,931.72
2023-01-26T08:18:29.617Z,931.77
2023-01-26T08:19:29.630Z,931.77
2023-01-26T08:20:29.647Z,931.77
2023-01-26T08:21:29.676Z,931.77
2023-01-26T08:22:29.699Z,931.79
2023-01-26T08:23:29.702Z,931.77
2023-01-26T08:24:29.714Z,931.79
2023-01-26T08:25:29.733Z,931.84
2023-01-26T08:26:29.753Z,931.84
2023-01-26T08:27:29.763Z,931.88
2023-01-26T08:28:29.782Z,931.89
2023-01-26T08:29:29.796Z,931.89
2023-01-26T08:30:29.817Z,931.91
2023-01-26T08:31:29.850Z,931.87
2023-01-26T08:32:29.836Z,931.83
2023-01-26T08:33:29.872Z,931.82
2023-01-26T08:34:29.874Z,931.81
2023-01-26T08:35:29.902Z,931.77
2023-01-26T08:36:29.908Z,931.80
2023-01-26T08:37:29.916Z,931.79
2023-01-26T08:38:29.944Z,931.78
2023-01-26T08:39:29.951Z,931.81
2023-01-26T08:40:29.971Z,931.86
2023-01-26T08:41:29.989Z,931.82
2023-01-26T08:42:30.022Z,931.86
2023-01-26T08:43:30.036Z,931.84
2023-01-26T08:44:30.026Z,931.86
2023-01-26T08:45:31.546Z,931.84
2023-01-26T08:46:30.067Z,931.82
2023-01-26T08:47:30.073Z,931.81
2023-01-26T08:48:30.098Z,931.81
2023-01-26T08:49:30.145Z,931.84
2023-01-26T08:50:30.127Z,931.83
2023-01-26T08:51:30.137Z,931.84
2023-01-26T08:52:30.154Z,931.85
2023-01-26T08:53:30.181Z,931.87
2023-01-26T08:54:30.187Z,931.87
2023-01-26T08:55:30.200Z,931.89
2023-01-26T08:56:30.229Z,931.89
2023-01-26T08:57:30.240Z,931.87
2023-01-26T08:58:30.247Z,931.88
2023-01-26T08:59:30.271Z,931.87
2023-01-26T09:00:30.280Z,931.90
2023-01-26T09:01:30.406Z,931.92
2023-01-26T09:02:30.462Z,931.91
2023-01-26T09:03:30.334Z,931.94
2023-01-26T09:04:30.343Z,931.95
2023-01-26T09:05:30.384Z,931.97
2023-01-26T09:06:30.374Z,931.98
2023-01-26T09:07:30.396Z,931.96
2023-01-26T09:08:30.412Z,932.00
2023-01-26T09:09:30.420Z,931.98
2023-01-26T09:10:30.442Z,931.99
2023-01-26T09:11:30.453Z,932.05
2023-01-26T09:12:30.477Z,932.02
2023-01-26T09:13:30.483Z,932.01
2023-01-26T09:14:30.511Z,931.98
2023-01-26T09:15:30.517Z,932.03
2023-01-26T09:16:30.636Z,932.06
2023-01-26T09:17:30.549Z,932.06
2023-01-26T09:18:30.574Z,932.09
2023-01-26T09:19:31.269Z,932.10
2023-01-26T09:20:30.596Z,932.13
2023-01-26T09:21:30.674Z,932.15
2023-01-26T09:22:30.640Z,932.14
2023-01-26T09:23:30.643Z,932.15
2023-01-26T09:24:30.657Z,932.12
2023-01-26T09:25:30.683Z,932.12
2023-01-26T09:26:30.697Z,932.12
2023-01-26T09:27:30.716Z,932.12
2023-01-26T09:28:30.728Z,932.17
2023-01-26T09:29:30.736Z,932.14
2023-01-26T09:30:30.807Z,932.19
2023-01-26T09:31:30.932Z,932.16
2023-01-26T09:32:30.784Z,932.20
2023-01-26T09:33:30.807Z,932.25
2023-01-26T09:34:30.894Z,932.21
2023-01-26T09:35:30.857Z,932.24
2023-01-26T09:36:30.858Z,932.24
2023-01-26T09:37:30.880Z,932.22
2023-01-26T09:38:30.875Z,932.22
2023-01-26T09:39:30.892Z,932.19
2023-01-26T09:40:30.917Z,932.20
2023-01-26T09:41:30.935Z,932.17
2023-01-26T09:42:30.947Z,932.17
2023-01-26T09:43:30.960Z,932.18
2023-01-26T09:44:30.976Z,932.20
2023-01-26T09:45:30.999Z,932.17
2023-01-26T09:46:31.039Z,932.21
2023-01-26T09:47:31.021Z,932.20
2023-01-26T09:48:31.033Z,932.23
2023-01-26T09:49:31.060Z,932.25
2023-01-26T09:50:31.073Z,932.23
2023-01-26T09:51:31.092Z,932.27
2023-01-26T09:52:31.102Z,932.25
2023-01-26T09:53:31.130Z,932.28
2023-01-26T09:54:31.136Z,932.28
2023-01-26T09:55:31.149Z,932.28
2023-01-26T09:56:31.160Z,932.29
2023-01-26T09:57:31.179Z,932.28
2023-01-26T09:58:31.204Z,932.32
2023-01-26T09:59:31.213Z,932.30
2023-01-26T10:00:31.228Z,932.34
2023-01-26T10:01:31.304Z,932.36
2023-01-26T10:02:31.297Z,932.34
2023-01-26T10:03:31.278Z,932.39
2023-01-26T10:04:31.296Z,932.42
2023-01-26T10:05:31.307Z,932.41
2023-01-26T10:06:31.344Z,932.44
2023-01-26T10:07:31.347Z,932.42
2023-01-26T10:08:31.346Z,932.51
2023-01-26T10:09:31.389Z,932.48
2023-01-26T10:10:31.388Z,932.51
2023-01-26T10:11:31.393Z,932.50
2023-01-26T10:12:31.416Z,932.50
2023-01-26T10:13:31.433Z,932.55
2023-01-26T10:14:31.439Z,932.57
2023-01-26T10:15:31.502Z,932.54
2023-01-26T10:16:31.480Z,932.54
2023-01-26T10:17:31.492Z,932.50
2023-01-26T10:18:31.502Z,932.52
2023-01-26T10:19:31.519Z,932.52
2023-01-26T10:20:31.534Z,932.55
2023-01-26T10:21:31.572Z,932.55
2023-01-26T10:22:31.577Z,932.62
2023-01-26T10:23:31.617Z,932.61
2023-01-26T10:24:31.606Z,932.64
2023-01-26T10:25:31.632Z,932.62
2023-01-26T10:26:31.664Z,932.63
2023-01-26T10:27:31.647Z,932.67
2023-01-26T10:28:31.665Z,932.69
2023-01-26T10:29:31.682Z,932.69
2023-01-26T10:30:31.735Z,932.68
2023-01-26T10:31:31.798Z,932.69
2023-01-26T10:32:31.721Z,932.70
2023-01-26T10:33:31.737Z,932.67
2023-01-26T10:34:31.752Z,932.67
2023-01-26T10:35:31.767Z,932.66
2023-01-26T10:36:31.845Z,932.67
2023-01-26T10:37:31.806Z,932.69
2023-01-26T10:38:31.824Z,932.66
2023-01-26T10:39:31.838Z,932.69
2023-01-26T10:40:31.882Z,932.67
2023-01-26T10:41:31.914Z,932.67
2023-01-26T10:42:31.878Z,932.68
2023-01-26T10:43:31.899Z,932.70
2023-01-26T10:44:31.912Z,932.68
2023-01-26T10:45:31.928Z,932.66
2023-01-26T10:46:32.055Z,932.72
2023-01-26T10:47:31.955Z,932.69
2023-01-26T10:48:31.979Z,932.73
2023-01-26T10:49:31.993Z,932.69
2023-01-26T10:50:31.999Z,932.71
2023-01-26T10:51:32.024Z,932.73
2023-01-26T10:52:32.033Z,932.76
2023-01-26T10:53:32.058Z,932.73
2023-01-26T10:54:32.071Z,932.78
2023-01-26T10:55:32.083Z,932.77
2023-01-26T10:56:32.096Z,932.77
2023-01-26T10:57:32.131Z,932.76
2023-01-26T10:58:34.077Z,932.74
2023-01-26T10:59:32.173Z,932.79
2023-01-26T11:00:32.163Z,932.79
2023-01-26T11:01:32.207Z,932.82
2023-01-26T11:02:32.207Z,932.83
2023-01-26T11:03:32.205Z,932.80
2023-01-26T11:04:32.227Z,932.80
2023-01-26T11:05:32.235Z,932.84
2023-01-26T11:06:32.265Z,932.87
2023-01-26T11:07:32.272Z,932.90
2023-01-26T11:08:32.282Z,932.87
2023-01-26T11:09:32.298Z,932.89
2023-01-26T11:10:32.342Z,932.91
2023-01-26T11:11:32.336Z,932.89
2023-01-26T11:12:32.352Z,932.85
2023-01-26T11:13:32.380Z,932.89
2023-01-26T11:14:32.389Z,932.88
2023-01-26T11:15:32.398Z,932.91
2023-01-26T11:16:32.493Z,932.92
2023-01-26T11:17:32.423Z,932.92
2023-01-26T11:18:32.450Z,932.92
2023-01-26T11:19:32.453Z,932.91
2023-01-26T11:20:32.476Z,932.88
2023-01-26T11:21:32.488Z,932.89
2023-01-26T11:22:32.508Z,932.88
2023-01-26T11:23:32.516Z,932.85
2023-01-26T11:24:32.540Z,932.88
2023-01-26T11:25:32.548Z,932.85
2023-01-26T11:26:32.576Z,932.88
2023-01-26T11:27:32.598Z,932.90
2023-01-26T11:28:32.605Z,932.88
2023-01-26T11:29:32.635Z,932.93
2023-01-26T11:30:32.635Z,932.93
2023-01-26T11:31:32.733Z,932.89
2023-01-26T11:32:32.658Z,932.93
2023-01-26T11:33:32.672Z,932.89
2023-01-26T11:34:32.693Z,932.90
2023-01-26T11:35:32.711Z,932.89
2023-01-26T11:36:32.728Z,932.93
2023-01-26T11:37:32.751Z,932.91
2023-01-26T11:38:32.817Z,932.90
2023-01-26T11:39:32.779Z,932.92
2023-01-26T11:40:32.790Z,932.93
2023-01-26T11:41:32.799Z,932.89
2023-01-26T11:42:32.814Z,932.89
2023-01-26T11:43:32.840Z,932.85
2023-01-26T11:44:32.860Z,932.86
2023-01-26T11:45:32.921Z,932.87
2023-01-26T11:46:32.882Z,932.83
2023-01-26T11:47:32.899Z,932.83
2023-01-26T11:48:32.916Z,932.83
2023-01-26T11:49:32.934Z,932.87
2023-01-26T11:50:32.979Z,932.85
2023-01-26T11:51:32.967Z,932.83
2023-01-26T11:52:32.982Z,932.85
2023-01-26T11:53:32.992Z,932.92
2023-01-26T11:54:33.008Z,932.94
2023-01-26T11:55:33.023Z,932.95
2023-01-26T11:56:33.031Z,932.89
2023-01-26T11:57:33.061Z,932.90
2023-01-26T11:58:33.073Z,932.88
2023-01-26T11:59:34.458Z,932.89
2023-01-26T12:00:33.104Z,932.91
2023-01-26T12:01:33.136Z,932.90
2023-01-26T12:02:33.208Z,932.92
2023-01-26T12:03:33.197Z,932.92
2023-01-26T12:04:33.160Z,932.93
2023-01-26T12:05:33.180Z,932.91
2023-01-26T12:06:33.193Z,932.93
2023-01-26T12:07:33.210Z,932.97
2023-01-26T12:08:33.218Z,932.93
2023-01-26T12:09:33.272Z,933.01
2023-01-26T12:10:33.251Z,932.97
2023-01-26T12:11:33.266Z,932.94
2023-01-26T12:12:33.284Z,932.99
2023-01-26T12:13:33.296Z,932.98
2023-01-26T12:14:33.312Z,933.01
2023-01-26T12:15:33.336Z,932.94
2023-01-26T12:16:33.390Z,933.00
2023-01-26T12:17:33.379Z,933.06
2023-01-26T12:18:48.894Z,933.00
2023-01-26T12:19:33.393Z,933.01
2023-01-26T12:20:33.419Z,933.03
2023-01-26T12:21:33.440Z,933.00
2023-01-26T12:22:34.398Z,932.99
2023-01-26T12:23:33.455Z,932.98
2023-01-26T12:25:01.075Z,933.00
2023-01-26T12:25:34.109Z,933.01
2023-01-26T12:26:33.507Z,933.04
2023-01-26T12:27:33.523Z,933.00
2023-01-26T12:28:33.532Z,933.00
2023-01-26T12:29:33.556Z,932.96
2023-01-26T12:30:33.667Z,933.02
2023-01-26T12:31:33.660Z,932.99
2023-01-26T12:32:33.607Z,932.99
2023-01-26T12:33:33.660Z,932.99